Terminal Aerodrome Forecast
Issued by NWS

Home | Current Version | Previous Version | Text Only | Print | Product List | Glossary On
Versions: 1 2 3 4 5 6 7 8 9 10 11 12 13 14 15 16
000
FTUS46 KSEW 251100
TAFPAE
TAF
KPAE 251124Z 2512/2612 02006KT P6SM OVC025
     FM251400 VRB03KT P6SM OVC012
     FM252000 32004KT P6SM BKN040
     FM252200 31005KT P6SM SCT250
     FM260600 02003KT P6SM SCT050=

USA.gov is the U.S. government's official web portal to all federal, state and local government web resources and services.